Time;durP1;ratioP1;P1;durP2;ratioP2;P2;SDS_P1;SDS_P2;PMS_P1;PMS_P2;Temp;Humidity;BMP_temperature;BMP_pressure;BME280_temperature;BME280_humidity;BME280_pressure;Samples;Min_cycle;Max_cycle;Signal;HPM_P1;HPM_P2
2022/12/15 00:38:54;;;;;;;21.35;12.00;;;;;;;-7.97;100.00;99799.72;6198669;23;20031;-84
2022/12/15 00:41:22;;;;;;;19.80;10.80;;;;;;;-7.97;100.00;99794.63;6193758;23;20035;-84
2022/12/15 00:43:49;;;;;;;24.17;12.90;;;;;;;-7.96;100.00;99788.78;6219817;23;20027;-84
2022/12/15 00:49:01;;;;;;;14.67;10.07;;;;;;;-7.99;100.00;99799.66;6249043;22;20004;-84
2022/12/15 01:21:41;;;;;;;24.80;13.52;;;;;;;-8.04;100.00;99813.78;6215685;23;20097;-84
2022/12/15 01:24:09;;;;;;;25.80;12.77;;;;;;;-8.02;100.00;99821.47;6214308;23;20701;-83
2022/12/15 01:26:37;;;;;;;32.60;13.60;;;;;;;-8.03;100.00;99819.72;6190390;23;20117;-83
2022/12/15 01:29:04;;;;;;;26.07;12.83;;;;;;;-8.04;100.00;99823.06;6216013;23;20388;-84
2022/12/15 01:31:30;;;;;;;20.07;12.50;;;;;;;-8.08;100.00;99821.13;6188990;22;20020;-84
2022/12/15 01:33:58;;;;;;;20.73;12.40;;;;;;;-8.08;100.00;99821.13;6215807;23;20016;-84
2022/12/15 01:36:24;;;;;;;21.30;11.47;;;;;;;-8.04;100.00;99816.31;6214892;23;20070;-83
2022/12/15 01:38:51;;;;;;;22.10;11.77;;;;;;;-8.03;100.00;99807.91;6214298;23;20017;-83
2022/12/15 01:41:18;;;;;;;21.23;11.57;;;;;;;-8.01;100.00;99810.53;6215058;23;20024;-83
2022/12/15 01:43:45;;;;;;;18.40;10.37;;;;;;;-8.01;100.00;99813.91;6240804;22;20023;-83
2022/12/15 01:46:36;;;;;;;20.57;9.87;;;;;;;-8.02;100.00;99808.75;6190738;23;20012;-83
2022/12/15 01:49:23;;;;;;;19.80;14.07;;;;;;;-8.02;100.00;99819.78;6213325;23;20823;-84
2022/12/15 01:51:53;;;;;;;20.20;9.93;;;;;;;-8.04;100.00;99828.16;6187428;23;20031;-83
2022/12/15 01:54:32;;;;;;;22.00;9.90;;;;;;;-8.07;100.00;99825.44;6214176;23;20063;-83
2022/12/15 01:57:08;;;;;;;17.60;12.00;;;;;;;-8.05;100.00;99819.63;6240724;23;20039;-83
2022/12/15 01:59:45;;;;;;;18.83;10.60;;;;;;;-8.02;100.00;99824.00;6190180;23;20020;-83
2022/12/15 02:02:14;;;;;;;20.57;11.23;;;;;;;-8.04;100.00;99821.38;6192803;23;20078;-84
2022/12/15 02:04:43;;;;;;;18.37;10.13;;;;;;;-8.03;100.00;99830.75;6217960;23;20024;-83
2022/12/15 02:07:21;;;;;;;17.60;10.53;;;;;;;-8.02;100.00;99829.09;6217986;23;20020;-83
2022/12/15 02:09:52;;;;;;;23.27;11.77;;;;;;;-8.04;100.00;99830.69;6249247;22;20047;-83
2022/12/15 02:12:39;;;;;;;20.47;11.33;;;;;;;-8.05;100.00;99839.09;6216984;22;20054;-84
2022/12/15 02:15:21;;;;;;;19.70;10.87;;;;;;;-8.06;100.00;99839.88;6213902;23;20012;-82
2022/12/15 02:18:12;;;;;;;25.63;12.00;;;;;;;-8.05;100.00;99828.94;6244575;22;20513;-82
2022/12/15 02:21:30;;;;;;;17.37;10.57;;;;;;;-8.02;100.00;99845.19;6219770;23;20016;-82
2022/12/15 02:24:25;;;;;;;18.10;9.47;;;;;;;-7.99;100.00;99847.91;6122860;23;20020;-83
2022/12/15 02:27:19;;;;;;;16.70;10.37;;;;;;;-7.98;100.00;99846.22;6191457;23;20050;-83
2022/12/15 02:30:16;;;;;;;;;;;;;;;-7.94;100.00;99844.72;6193745;23;20100;-83
2022/12/15 02:33:20;;;;;;;16.37;9.67;;;;;;;-7.91;100.00;99853.38;6241132;22;19998;-83
2022/12/15 02:36:30;;;;;;;20.60;11.37;;;;;;;-7.90;100.00;99846.63;6211084;23;20028;-83
2022/12/15 02:38:57;;;;;;;21.47;12.07;;;;;;;-7.87;100.00;99856.97;6095805;23;20037;-83
2022/12/15 02:41:46;;;;;;;16.67;11.00;;;;;;;-7.87;100.00;99857.81;6097071;23;20097;-82
2022/12/15 02:44:42;;;;;;;21.60;10.43;;;;;;;-7.88;100.00;99865.38;6180021;23;20024;-83
2022/12/15 02:47:24;;;;;;;16.03;10.07;;;;;;;-7.88;100.00;99870.47;6247060;22;20019;-83
2022/12/15 02:50:15;;;;;;;14.90;9.10;;;;;;;-7.89;100.00;99871.25;6243743;23;20112;-83
2022/12/15 02:53:17;;;;;;;15.17;9.33;;;;;;;-7.88;100.00;99873.00;6244193;23;20039;-83
2022/12/15 02:56:13;;;;;;;14.73;8.97;;;;;;;-7.91;100.00;99870.28;6244663;22;20012;-83
2022/12/15 02:58:51;;;;;;;18.40;10.13;;;;;;;-7.93;100.00;99872.75;6193119;23;20020;-83
2022/12/15 03:01:45;;;;;;;18.60;11.27;;;;;;;-7.94;100.00;99876.06;6245521;22;20021;-83
2022/12/15 03:04:13;;;;;;;19.02;9.82;;;;;;;-7.94;100.00;99876.06;6220244;23;20502;-83
2022/12/15 03:06:40;;;;;;;18.20;9.40;;;;;;;-7.95;100.00;99866.72;6245971;22;20062;-82
2022/12/15 03:09:06;;;;;;;18.70;8.90;;;;;;;-7.97;100.00;99871.69;6215865;23;20089;-85
2022/12/15 03:11:35;;;;;;;16.27;10.30;;;;;;;-7.97;100.00;99876.78;6216595;23;20786;-84
2022/12/15 03:14:03;;;;;;;14.17;9.10;;;;;;;-7.97;100.00;99883.53;6217299;23;20023;-83
2022/12/15 03:16:29;;;;;;;21.57;9.50;;;;;;;-7.98;100.00;99890.31;6217147;23;20016;-83
2022/12/15 03:18:56;;;;;;;14.60;9.57;;;;;;;-7.94;100.00;99886.22;6218653;23;20012;-84
2022/12/15 03:21:23;;;;;;;16.80;10.50;;;;;;;-7.92;100.00;99894.81;6218530;23;20050;-84
2022/12/15 03:23:51;;;;;;;18.83;9.03;;;;;;;-7.93;100.00;99887.13;6219083;23;20012;-83
2022/12/15 03:26:18;;;;;;;19.07;10.83;;;;;;;-7.95;100.00;99891.22;6193446;23;20118;-83
2022/12/15 03:28:45;;;;;;;16.10;8.83;;;;;;;-7.95;100.00;99888.69;6195539;23;20038;-83
2022/12/15 03:31:11;;;;;;;16.73;8.40;;;;;;;-7.95;100.00;99899.75;6249189;22;20012;-84
2022/12/15 03:33:38;;;;;;;20.07;9.23;;;;;;;-7.95;100.00;99899.75;6229782;23;20024;-83
2022/12/15 03:36:07;;;;;;;15.83;9.77;;;;;;;-7.94;100.00;99898.06;6228335;23;20058;-82
2022/12/15 03:38:33;;;;;;;15.83;9.17;;;;;;;-7.89;100.00;99907.66;6222808;23;20092;-83
2022/12/15 03:41:01;;;;;;;12.77;8.63;;;;;;;-7.89;100.00;99909.34;6197126;23;20323;-84
2022/12/15 03:43:27;;;;;;;19.87;9.47;;;;;;;-7.90;100.00;99915.22;6221931;23;20046;-83
2022/12/15 03:45:54;;;;;;;15.17;8.93;;;;;;;-7.90;100.00;99912.69;6196492;23;20095;-83
2022/12/15 03:48:21;;;;;;;15.60;7.80;;;;;;;-7.90;100.00;99916.09;6219060;23;20024;-83
2022/12/15 03:50:50;;;;;;;13.67;7.60;;;;;;;-7.89;100.00;99920.38;6216307;23;20056;-84
2022/12/15 03:53:17;;;;;;;16.37;8.43;;;;;;;-7.89;100.00;99917.84;6216380;23;20083;-83
2022/12/15 03:55:44;;;;;;;12.63;8.17;;;;;;;-7.88;99.85;99921.25;6216563;23;20016;-84
2022/12/15 03:58:11;;;;;;;16.47;9.47;;;;;;;-7.85;99.90;99923.97;6194448;23;20070;-85
2022/12/15 04:00:43;;;;;;;18.37;8.47;;;;;;;-7.83;100.00;99923.25;6225902;23;20066;-84
2022/12/15 04:03:13;;;;;;;13.80;7.83;;;;;;;-7.83;100.00;99922.38;6226517;23;20016;-84
2022/12/15 04:05:40;;;;;;;14.07;8.83;;;;;;;-7.80;99.57;99932.69;6223598;23;20024;-82
2022/12/15 04:08:08;;;;;;;16.60;8.83;;;;;;;-7.80;99.99;99925.06;6222908;23;20032;-84
2022/12/15 04:10:37;;;;;;;14.83;8.17;;;;;;;-7.79;99.92;99925.94;6224824;23;20181;-85
2022/12/15 04:13:12;;;;;;;11.77;8.97;;;;;;;-7.80;100.00;99925.06;6254680;22;20012;-85
2022/12/15 04:15:41;;;;;;;12.10;8.47;;;;;;;-7.78;100.00;99920.97;6256013;22;20020;-84
2022/12/15 04:18:11;;;;;;;13.43;8.20;;;;;;;-7.74;100.00;99920.31;6204576;23;20611;-83
2022/12/15 04:20:39;;;;;;;10.20;7.47;;;;;;;-7.73;100.00;99921.19;6255902;22;20046;-84
2022/12/15 04:23:06;;;;;;;19.83;9.10;;;;;;;-7.72;100.00;99920.41;6230996;23;20785;-85
2022/12/15 05:34:32;;;;;;;11.70;7.07;;;;;;;-7.47;100.00;99950.50;6302038;22;20019;-84
2022/12/15 05:37:01;;;;;;;15.07;9.17;;;;;;;-7.45;100.00;99958.22;6271837;22;20019;-84
2022/12/15 05:39:28;;;;;;;14.67;8.93;;;;;;;-7.45;100.00;99956.53;6301074;22;20007;-83
2022/12/15 05:41:56;;;;;;;12.43;8.23;;;;;;;-7.45;100.00;99954.00;6299700;22;20014;-84
2022/12/15 05:44:25;;;;;;;13.53;8.33;;;;;;;-7.45;100.00;99955.69;6270042;22;20118;-83
2022/12/15 05:46:55;;;;;;;15.53;8.87;;;;;;;-7.46;100.00;99957.34;6270713;22;20031;-83
2022/12/15 05:49:22;;;;;;;11.03;7.00;;;;;;;-7.44;100.00;99960.84;6287751;22;20042;-84
2022/12/15 05:51:48;;;;;;;16.53;8.37;;;;;;;-7.45;100.00;99961.63;6261296;22;20515;-83
2022/12/15 05:54:18;;;;;;;15.03;8.73;;;;;;;-7.43;100.00;99970.22;6285733;22;20015;-83
2022/12/15 05:56:48;;;;;;;10.87;8.43;;;;;;;-7.42;100.00;99973.63;6284362;22;20029;-84
2022/12/15 05:59:16;;;;;;;18.80;8.67;;;;;;;-7.39;100.00;99979.75;6310515;22;20454;-82
2022/12/15 06:01:48;;;;;;;13.13;8.33;;;;;;;-7.41;100.00;99981.34;6284272;22;20082;-84
2022/12/15 06:04:15;;;;;;;12.20;6.67;;;;;;;-7.40;100.00;99985.63;6282553;22;20442;-84
2022/12/15 06:06:42;;;;;;;14.50;8.00;;;;;;;-7.42;100.00;99994.84;6278900;22;20049;-83
2022/12/15 06:09:10;;;;;;;16.17;7.20;;;;;;;-7.40;100.00;100005.97;6280264;22;20034;-82
2022/12/15 06:11:37;;;;;;;14.77;9.23;;;;;;;-7.42;100.00;100006.69;6282901;22;20046;-82
2022/12/15 06:14:04;;;;;;;12.63;8.07;;;;;;;-7.41;100.00;100010.97;6284023;22;20011;-83
2022/12/15 06:16:31;;;;;;;14.77;7.97;;;;;;;-7.39;100.00;100011.91;6285165;22;20023;-84
2022/12/15 06:19:01;;;;;;;23.10;11.50;;;;;;;-7.38;100.00;100009.47;6282493;22;20492;-83
2022/12/15 06:21:35;;;;;;;20.23;9.87;;;;;;;-7.35;100.00;100012.19;6280619;22;20083;-82
2022/12/15 06:24:29;;;;;;;17.08;9.38;;;;;;;-7.35;100.00;100009.63;6279648;22;20029;-84
2022/12/15 06:26:56;;;;;;;;;;;;;;;-7.33;100.00;100009.69;6308942;22;20022;-83
2022/12/15 06:29:23;;;;;;;14.53;8.40;;;;;;;-7.34;100.00;100011.38;6254943;22;20222;-84
2022/12/15 06:31:50;;;;;;;12.27;8.17;;;;;;;-7.35;100.00;100016.41;6255671;22;20428;-83
2022/12/15 06:34:17;;;;;;;10.40;7.60;;;;;;;-7.34;100.00;100016.47;6313067;22;20018;-84
2022/12/15 06:36:49;;;;;;;15.87;8.20;;;;;;;-7.34;100.00;100015.56;6280799;22;20025;-84
2022/12/15 06:39:16;;;;;;;19.90;10.43;;;;;;;-7.32;100.00;100024.16;6255409;22;20023;-85
2022/12/15 06:41:47;;;;;;;13.80;8.63;;;;;;;-7.30;100.00;100027.66;6280382;22;20015;-84
2022/12/15 06:44:17;;;;;;;17.97;9.10;;;;;;;-7.31;100.00;100029.34;6284114;22;20026;-85
2022/12/15 06:46:45;;;;;;;17.40;10.13;;;;;;;-7.30;100.00;100025.09;6296398;22;20508;-83
2022/12/15 06:49:12;;;;;;;14.63;9.20;;;;;;;-7.28;100.00;100025.22;6256569;22;20083;-85
2022/12/15 06:51:42;;;;;;;18.53;10.47;;;;;;;-7.28;100.00;100022.66;6278937;22;20033;-84
2022/12/15 06:54:35;;;;;;;13.93;9.07;;;;;;;-7.27;100.00;100024.41;6254282;22;20023;-82
2022/12/15 06:57:04;;;;;;;21.17;10.77;;;;;;;-7.26;100.00;100028.69;6246738;22;20841;-83
2022/12/15 06:59:32;;;;;;;16.57;9.43;;;;;;;-7.27;100.00;100035.47;6274862;22;20015;-83
2022/12/15 07:02:01;;;;;;;15.90;8.63;;;;;;;-7.27;100.00;100035.47;6249769;22;20634;-83
2022/12/15 07:20:40;;;;;;;18.63;9.70;;;;;;;-7.20;100.00;100041.75;6012619;23;20011;-84
2022/12/15 07:36:38;;;;;;;15.63;8.57;;;;;;;-7.08;100.00;100083.06;6303775;22;20011;-83
2022/12/15 07:39:09;;;;;;;15.97;10.33;;;;;;;-7.04;100.00;100089.19;6281668;22;20023;-83
2022/12/15 07:41:49;;;;;;;13.83;9.77;;;;;;;-7.00;100.00;100093.66;6256634;22;20386;-83
2022/12/15 07:45:10;;;;;;;16.87;10.20;;;;;;;-6.96;100.00;100098.13;6253134;22;20059;-83
2022/12/15 07:47:39;;;;;;;16.40;10.90;;;;;;;-6.92;100.00;100105.13;6271379;22;20478;-84
2022/12/15 07:50:08;;;;;;;21.63;10.37;;;;;;;-6.90;100.00;100105.19;6277270;22;20023;-83
2022/12/15 07:55:38;;;;;;;19.13;9.53;;;;;;;-6.84;100.00;100105.53;6251137;22;20038;-83
2022/12/15 07:58:07;;;;;;;18.13;11.03;;;;;;;-6.80;100.00;100109.97;6253693;22;20061;-83
2022/12/15 08:29:23;;;;;;;20.83;12.43;;;;;;;-6.26;100.00;100130.50;5900180;24;20276;-83
2022/12/15 08:31:53;;;;;;;26.03;12.43;;;;;;;-6.25;100.00;100131.41;5920482;23;20049;-83
2022/12/15 08:34:23;;;;;;;21.00;12.00;;;;;;;-6.24;100.00;100135.72;5987523;23;20093;-83
2022/12/15 08:37:13;;;;;;;20.57;11.30;;;;;;;-6.20;100.00;100132.50;6030199;23;20042;-84
2022/12/15 08:40:24;;;;;;;20.07;11.10;;;;;;;-6.15;100.00;100138.72;6031671;23;20083;-83
2022/12/15 08:42:54;;;;;;;23.17;11.83;;;;;;;-6.12;100.00;100136.31;6141068;23;20021;-84
2022/12/15 08:58:04;;;;;;;;;;;;;;;-5.83;100.00;100159.78;5980891;23;20260;-83
2022/12/15 09:00:31;;;;;;;18.53;10.63;;;;;;;-5.75;100.00;100157.59;6004197;23;19929;-83
2022/12/15 09:03:00;;;;;;;16.63;8.87;;;;;;;-5.68;100.00;100145.22;6075124;23;20022;-82
2022/12/15 09:05:27;;;;;;;19.37;10.73;;;;;;;-5.65;100.00;100142.81;6194052;22;20020;-81
2022/12/15 09:07:59;;;;;;;20.43;10.63;;;;;;;-5.53;100.00;100151.84;6243029;22;20023;-81
2022/12/15 09:10:27;;;;;;;18.17;9.97;;;;;;;-5.49;100.00;100151.19;6218768;22;20077;-81
2022/12/15 09:12:54;;;;;;;15.20;8.13;;;;;;;-5.44;100.00;100151.44;6242501;22;20496;-83
2022/12/15 09:15:23;;;;;;;18.90;9.27;;;;;;;-5.43;100.00;100158.28;6242812;22;20048;-83
2022/12/15 09:17:51;;;;;;;23.43;11.07;;;;;;;-5.35;100.00;100159.50;6217204;22;20422;-83
2022/12/15 09:20:19;;;;;;;14.30;8.90;;;;;;;-5.30;100.00;100162.28;6215478;22;20028;-83
2022/12/15 09:22:48;;;;;;;16.47;9.97;;;;;;;-5.27;100.00;100160.72;6217464;22;20019;-83
2022/12/15 09:25:15;;;;;;;16.17;9.80;;;;;;;-5.22;100.00;100161.81;6219109;22;20070;-83
2022/12/15 09:27:42;;;;;;;17.30;11.00;;;;;;;-5.17;100.00;100160.34;6241962;22;20023;-83
2022/12/15 09:30:10;;;;;;;20.87;10.83;;;;;;;-5.07;100.00;100164.22;6219930;22;20023;-83
2022/12/15 09:32:38;;;;;;;21.93;11.13;;;;;;;-4.95;100.00;100166.47;6242402;22;20043;-83
2022/12/15 09:35:06;;;;;;;16.60;11.37;;;;;;;-4.91;100.00;100181.09;6242289;22;20055;-83
2022/12/15 09:37:33;;;;;;;22.83;13.07;;;;;;;-4.87;100.00;100166.81;6244449;22;20016;-83
2022/12/15 09:40:00;;;;;;;20.20;11.77;;;;;;;-4.78;100.00;100167.22;6256417;22;20019;-84
2022/12/15 09:42:30;;;;;;;24.37;11.13;;;;;;;-4.74;100.00;100169.09;6256871;22;20020;-81
2022/12/15 09:48:17;;;;;;;20.25;12.32;;;;;;;-4.58;100.00;100162.13;6269142;22;20066;-82
2022/12/15 09:50:47;;;;;;;21.48;11.57;;;;;;;-4.48;100.00;100169.41;6246180;22;20030;-84
2022/12/15 09:53:17;;;;;;;17.92;10.57;;;;;;;-4.45;100.00;100168.66;6218341;22;20023;-83
2022/12/15 09:55:52;;;;;;;16.92;9.80;;;;;;;-4.43;100.00;100161.91;6243769;22;20521;-83
2022/12/15 09:58:55;;;;;;;17.63;11.15;;;;;;;-4.30;100.00;100165.88;6220104;22;20031;-81
2022/12/15 10:02:04;;;;;;;18.50;9.77;;;;;;;-4.22;100.00;100169.66;6245143;22;20119;-82
2022/12/15 10:04:48;;;;;;;14.75;10.20;;;;;;;-4.19;100.00;100173.19;6268863;22;20024;-84
2022/12/15 10:07:45;;;;;;;14.40;8.70;;;;;;;-4.13;100.00;100170.03;6244710;22;20076;-83
2022/12/15 10:10:43;;;;;;;16.65;10.48;;;;;;;-4.04;100.00;100183.22;6218933;22;20490;-84
2022/12/15 10:13:24;;;;;;;19.65;10.95;;;;;;;-3.95;100.00;100189.50;6246655;22;20020;-84
2022/12/15 10:16:00;;;;;;;24.40;11.32;;;;;;;-3.82;100.00;100181.53;6276681;22;20012;-83
2022/12/15 10:18:37;;;;;;;13.50;9.82;;;;;;;-3.76;100.00;100188.59;6200788;22;20110;-81
2022/12/15 10:21:04;;;;;;;19.15;10.57;;;;;;;-3.76;100.00;100179.22;6250913;22;20024;-82
2022/12/15 10:23:36;;;;;;;15.70;9.65;;;;;;;-3.71;100.00;100185.41;6222291;22;20435;-82
2022/12/15 10:26:32;;;;;;;18.58;11.48;;;;;;;-3.64;100.00;100178.00;6247336;22;20019;-82
2022/12/15 10:29:29;;;;;;;12.63;7.95;;;;;;;-3.60;100.00;100179.88;6244660;22;20019;-82
2022/12/15 10:32:05;;;;;;;15.20;9.38;;;;;;;-3.57;100.00;100187.66;6245138;22;20107;-82
2022/12/15 10:34:36;;;;;;;18.17;9.23;;;;;;;-3.49;100.00;100179.47;6227245;22;20112;-84
2022/12/15 10:37:03;;;;;;;20.30;11.80;;;;;;;-3.40;100.00;100172.97;6258805;22;20019;-84
2022/12/15 10:39:40;;;;;;;12.32;8.38;;;;;;;-3.37;100.00;100179.09;6241515;22;20077;-83
2022/12/15 10:42:16;;;;;;;13.20;7.88;;;;;;;-3.30;100.00;100169.09;6261433;22;20102;-82
2022/12/15 10:44:46;;;;;;;17.52;10.25;;;;;;;-3.24;100.00;100180.44;6261586;22;20083;-82
2022/12/15 10:47:31;;;;;;;18.02;10.10;;;;;;;-3.17;100.00;100181.56;6252248;22;20039;-84
2022/12/15 10:50:27;;;;;;;15.85;10.30;;;;;;;-3.04;100.00;100186.38;6246400;22;20051;-81
2022/12/15 10:55:40;;;;;;;18.33;10.50;;;;;;;-2.84;100.00;100176.84;6255428;22;20042;-85
2022/12/15 10:58:22;;;;;;;18.60;10.15;;;;;;;-2.71;100.00;100178.19;6248858;22;20019;-85
2022/12/15 11:01:07;;;;;;;16.88;8.50;;;;;;;-2.64;100.00;100178.44;6252674;22;20020;-84
2022/12/15 11:03:38;;;;;;;18.00;9.38;;;;;;;-2.64;100.00;100176.72;6228433;22;20020;-85
2022/12/15 11:06:35;;;;;;;16.73;9.48;;;;;;;-2.64;100.00;100181.00;6252138;22;20523;-85
2022/12/15 11:09:37;;;;;;;16.75;9.25;;;;;;;-2.43;100.00;100180.88;6251493;22;20020;-86
2022/12/15 11:15:23;;;;;;;28.35;14.13;;;;;;;-2.21;100.00;100182.53;6255994;22;20007;-84
2022/12/15 11:18:22;;;;;;;14.20;8.68;;;;;;;-2.18;100.00;100185.19;6254327;22;20044;-83
2022/12/15 11:20:56;;;;;;;17.90;9.98;;;;;;;-2.11;100.00;100186.25;6253471;22;20015;-86
2022/12/15 11:24:04;;;;;;;15.48;9.98;;;;;;;-2.08;100.00;100186.38;6234125;22;20019;-85
2022/12/15 11:26:49;;;;;;;14.73;8.88;;;;;;;-2.07;100.00;100180.44;6283413;22;20022;-85
2022/12/15 11:29:39;;;;;;;13.65;7.80;;;;;;;-2.08;100.00;100179.56;6251665;22;20039;-84
2022/12/15 11:32:08;;;;;;;15.20;8.55;;;;;;;-2.02;100.00;100181.44;6278475;22;20095;-86
2022/12/15 11:34:47;;;;;;;12.63;7.55;;;;;;;-2.01;100.00;100184.09;6276364;22;20022;-84
2022/12/15 11:37:36;;;;;;;16.05;8.88;;;;;;;-2.01;100.00;100176.41;6249861;22;20719;-85
2022/12/15 11:40:38;;;;;;;12.70;9.05;;;;;;;-1.94;100.00;100181.72;6251485;22;20540;-84
2022/12/15 11:43:35;;;;;;;10.35;7.38;;;;;;;-1.85;100.00;100185.47;6252476;22;20039;-85
2022/12/15 11:46:19;;;;;;;13.68;7.13;;;;;;;-1.88;100.00;100187.06;6252978;22;20024;-86
2022/12/15 11:49:14;;;;;;;15.25;9.13;;;;;;;-1.84;100.00;100189.78;6251281;22;20026;-86
2022/12/15 11:52:00;;;;;;;12.07;7.32;;;;;;;-1.76;100.00;100192.63;6247653;22;20012;-85
2022/12/15 11:54:57;;;;;;;14.63;7.05;;;;;;;-1.78;99.63;100189.13;6248372;22;20020;-82
2022/12/15 11:57:51;;;;;;;10.57;7.07;;;;;;;-1.78;100.00;100190.81;6224866;22;20026;-85
2022/12/15 12:00:24;;;;;;;18.67;9.82;;;;;;;-1.73;100.00;100196.97;6290251;22;20060;-84
2022/12/15 12:03:28;;;;;;;15.43;9.33;;;;;;;-1.65;99.34;100192.09;6256363;22;20112;-85
2022/12/15 12:06:23;;;;;;;12.35;7.80;;;;;;;-1.62;98.34;100181.94;6254156;22;20079;-85
2022/12/15 12:09:12;;;;;;;11.45;7.03;;;;;;;-1.67;98.11;100187.78;6276380;22;20019;-83
2022/12/15 12:12:33;;;;;;;17.02;7.93;;;;;;;-1.69;98.74;100186.84;6221931;22;20487;-86
2022/12/15 12:15:50;;;;;;;8.63;7.00;;;;;;;-1.69;98.70;100186.00;6235519;22;20016;-82
2022/12/15 12:18:23;;;;;;;13.65;8.00;;;;;;;-1.64;98.85;100181.00;6251716;22;20015;-85
2022/12/15 12:20:58;;;;;;;11.70;7.80;;;;;;;-1.61;98.67;100183.69;6247034;22;20046;-83
2022/12/15 12:23:39;;;;;;;13.70;8.38;;;;;;;-1.53;97.95;100182.22;6222533;22;20379;-82
2022/12/15 12:26:43;;;;;;;16.73;9.15;;;;;;;-1.47;97.25;100174.72;6246481;22;20019;-84
2022/12/15 12:29:26;;;;;;;11.45;7.63;;;;;;;-1.45;96.71;100172.22;6225546;22;20019;-84
2022/12/15 12:32:24;;;;;;;13.40;7.38;;;;;;;-1.47;96.65;100174.72;6219230;22;20039;-84
2022/12/15 12:35:16;;;;;;;17.92;8.75;;;;;;;-1.42;97.11;100173.19;6271303;22;20065;-84
2022/12/15 12:37:52;;;;;;;15.45;7.82;;;;;;;-1.33;96.55;100172.56;6246065;22;20019;-84
2022/12/15 12:40:42;;;;;;;13.68;8.75;;;;;;;-1.29;95.77;100174.44;6274327;22;20016;-84
2022/12/15 12:43:16;;;;;;;10.52;7.32;;;;;;;-1.33;96.25;100178.59;6246902;22;20019;-84
2022/12/15 12:45:55;;;;;;;11.15;7.72;;;;;;;-1.37;96.23;100174.19;6222962;22;20027;-84
2022/12/15 12:48:36;;;;;;;13.68;9.27;;;;;;;-1.31;96.30;100177.78;6247070;22;20047;-85
2022/12/15 12:51:30;;;;;;;16.90;8.88;;;;;;;-1.19;95.71;100180.72;6221181;22;20445;-84
2022/12/15 12:53:59;;;;;;;11.60;7.88;;;;;;;-1.16;95.07;100183.41;6251762;22;20019;-85
2022/12/15 12:56:38;;;;;;;12.82;8.85;;;;;;;-1.18;95.77;100183.34;6252151;22;20023;-85
2022/12/15 12:59:30;;;;;;;13.15;8.60;;;;;;;-1.18;95.78;100180.75;6248578;22;20091;-86
2022/12/15 13:02:33;;;;;;;15.73;8.48;;;;;;;-1.13;95.33;100180.91;6275070;22;20448;-85
2022/12/15 13:05:27;;;;;;;16.58;8.77;;;;;;;-1.09;94.90;100171.63;6253721;22;20102;-84
2022/12/15 13:08:13;;;;;;;15.73;9.30;;;;;;;-1.07;93.79;100181.13;6272752;22;20069;-84
2022/12/15 13:10:46;;;;;;;17.92;10.02;;;;;;;-1.16;93.65;100175.69;6272095;22;20020;-83
2022/12/15 13:13:18;;;;;;;15.88;8.80;;;;;;;-1.22;94.38;100178.06;6246730;22;20037;-84
2022/12/15 13:15:48;;;;;;;21.42;10.57;;;;;;;-1.27;94.54;100164.22;6274459;22;20296;-85
2022/12/15 13:18:21;;;;;;;13.65;7.85;;;;;;;-1.30;94.28;100169.22;6245043;22;20015;-84
2022/12/15 13:20:55;;;;;;;14.70;7.90;;;;;;;-1.34;94.23;100169.16;6222809;22;20016;-85
2022/12/15 13:23:21;;;;;;;11.35;7.97;;;;;;;-1.35;94.81;100171.69;6246353;22;20761;-86
2022/12/15 13:25:57;;;;;;;13.85;8.68;;;;;;;-1.40;95.11;100170.66;6245472;22;20020;-86
2022/12/15 13:28:42;;;;;;;10.63;6.75;;;;;;;-1.44;95.42;100179.94;6245548;22;20015;-86
2022/12/15 13:31:23;;;;;;;10.75;7.78;;;;;;;-1.49;95.72;100168.66;6246976;22;20011;-86
2022/12/15 13:33:51;;;;;;;14.73;7.68;;;;;;;-1.47;95.86;100173.84;6245720;22;20016;-85
2022/12/15 13:36:36;;;;;;;12.13;8.38;;;;;;;-1.45;95.35;100175.63;6243971;22;20023;-86
2022/12/15 13:39:12;;;;;;;11.13;7.68;;;;;;;-1.40;95.07;100175.78;6271807;22;20095;-86
2022/12/15 13:41:51;;;;;;;11.82;7.68;;;;;;;-1.38;94.54;100174.16;6279676;22;20020;-82
2022/12/15 13:44:24;;;;;;;13.07;8.88;;;;;;;-1.33;94.03;100167.44;6271444;22;20382;-81
2022/12/15 13:46:54;;;;;;;11.40;7.43;;;;;;;-1.37;94.08;100168.19;6272387;22;20039;-79
2022/12/15 13:49:47;;;;;;;15.10;9.38;;;;;;;-1.41;94.00;100168.91;6244466;22;20039;-83
2022/12/15 13:52:23;;;;;;;11.65;8.05;;;;;;;-1.44;93.94;100177.38;6245602;22;20015;-80
2022/12/15 13:54:57;;;;;;;14.88;8.52;;;;;;;-1.55;93.77;100173.59;6247237;22;20547;-80
2022/12/15 13:57:26;;;;;;;14.13;8.90;;;;;;;-1.62;94.51;100172.53;6223224;22;20019;-83
2022/12/15 14:00:07;;;;;;;12.18;9.13;;;;;;;-1.64;95.00;100174.19;6247059;22;20069;-81
2022/12/15 14:02:36;;;;;;;10.20;7.97;;;;;;;-1.67;95.37;100179.19;6245981;22;20008;-81
2022/12/15 14:05:20;;;;;;;11.10;7.78;;;;;;;-1.73;95.57;100174.75;6247399;22;20045;-81
2022/12/15 14:07:53;;;;;;;15.82;9.35;;;;;;;-1.74;95.20;100180.69;6218635;22;20023;-82
2022/12/15 14:10:46;;;;;;;14.25;8.30;;;;;;;-1.79;95.60;100181.38;6273868;22;20435;-80
2022/12/15 14:13:24;;;;;;;15.32;9.77;;;;;;;-1.86;95.45;100188.84;6248797;22;20031;-81
2022/12/15 14:15:55;;;;;;;13.57;8.32;;;;;;;-1.89;96.30;100188.75;6252831;22;20014;-83
2022/12/15 14:18:39;;;;;;;15.80;9.63;;;;;;;-1.89;96.64;100186.19;6259557;22;20016;-82
2022/12/15 14:21:17;;;;;;;;;;;;;;;-1.91;95.90;100181.84;6255153;22;20042;-81
2022/12/15 14:23:45;;;;;;;12.63;8.38;;;;;;;-2.00;96.42;100182.38;6250168;22;19934;-81
2022/12/15 14:26:15;;;;;;;13.70;8.95;;;;;;;-2.08;96.64;100179.56;6249935;22;20111;-80
2022/12/15 14:28:46;;;;;;;15.82;9.35;;;;;;;-2.11;96.92;100183.69;6249375;22;20442;-81
2022/12/15 14:31:24;;;;;;;14.60;8.85;;;;;;;-2.16;97.12;100181.00;6247779;22;20023;-81
2022/12/15 14:34:03;;;;;;;11.52;7.55;;;;;;;-2.23;97.15;100179.91;6247300;22;20031;-80
2022/12/15 14:36:32;;;;;;;22.63;9.85;;;;;;;-2.26;97.97;100174.66;6246724;22;20008;-80
2022/12/15 14:39:06;;;;;;;17.80;10.25;;;;;;;-2.30;98.54;100175.38;6244301;22;20038;-82
2022/12/15 14:41:37;;;;;;;17.95;9.43;;;;;;;-2.30;98.34;100189.91;6246216;22;20015;-81
2022/12/15 14:44:35;;;;;;;16.73;10.55;;;;;;;-2.39;98.18;100183.59;6245168;22;20050;-81
2022/12/15 14:47:06;;;;;;;18.75;10.70;;;;;;;-2.48;99.12;100190.97;6219155;22;20045;-82
2022/12/15 14:49:40;;;;;;;15.07;10.15;;;;;;;-2.48;99.42;100180.72;6246936;22;20023;-82
2022/12/15 14:52:26;;;;;;;16.75;10.25;;;;;;;-2.48;99.51;100177.28;6247655;22;20038;-81
2022/12/15 14:54:58;;;;;;;16.95;11.13;;;;;;;-2.51;99.93;100184.03;6247256;22;20027;-81
2022/12/15 14:57:43;;;;;;;17.13;10.82;;;;;;;-2.56;100.00;100171.88;6245794;22;20022;-81
2022/12/15 15:00:35;;;;;;;21.63;12.10;;;;;;;-2.66;99.83;100174.13;6223569;22;20015;-81
2022/12/15 15:03:17;;;;;;;16.15;9.05;;;;;;;-2.72;100.00;100170.47;6247717;22;20046;-82
2022/12/15 15:05:58;;;;;;;14.73;8.02;;;;;;;-2.78;100.00;100170.22;6275789;22;20011;-81
2022/12/15 15:08:32;;;;;;;16.17;9.10;;;;;;;-2.84;100.00;100171.75;6249061;22;20007;-81
2022/12/15 15:11:19;;;;;;;14.90;9.80;;;;;;;-2.92;100.00;100162.00;6276887;22;20042;-81
2022/12/15 15:13:46;;;;;;;14.73;8.35;;;;;;;-2.95;100.00;100167.03;6247710;22;20126;-81
2022/12/15 15:16:17;;;;;;;20.48;11.07;;;;;;;-3.05;100.00;100156.44;6247832;22;20007;-82
2022/12/15 15:18:49;;;;;;;16.35;10.48;;;;;;;-3.10;100.00;100164.75;6245873;22;20020;-81
2022/12/15 15:21:22;;;;;;;11.95;8.65;;;;;;;-3.07;100.00;100157.19;6221504;22;20015;-81
2022/12/15 15:24:04;;;;;;;19.08;11.05;;;;;;;-3.08;100.00;100158.00;6244156;22;20085;-81
2022/12/15 15:26:31;;;;;;;21.08;12.60;;;;;;;-3.10;100.00;100168.19;6245756;22;20099;-79
2022/12/15 15:28:58;;;;;;;20.30;11.07;;;;;;;-3.06;100.00;100161.50;6246593;22;20020;-81
2022/12/15 15:31:26;;;;;;;19.70;11.80;;;;;;;-3.07;100.00;100163.19;6246335;22;20050;-78
2022/12/15 15:33:55;;;;;;;18.92;10.80;;;;;;;-3.14;100.00;100161.22;6247584;22;20026;-79
2022/12/15 15:36:24;;;;;;;22.48;10.57;;;;;;;-3.17;100.00;100169.66;6221346;22;20034;-79
2022/12/15 15:38:51;;;;;;;17.27;9.73;;;;;;;-3.20;100.00;100176.34;6245486;22;20459;-80